createdAt,value
2022-09-28T00:02:19.640Z,4.00
2022-09-28T00:04:50.745Z,6.00
2022-09-28T00:09:51.024Z,8.10
2022-09-28T00:12:22.518Z,4.00
2022-09-28T00:14:54.097Z,5.10
2022-09-28T00:17:26.583Z,5.70
2022-09-28T00:19:59.180Z,5.10
2022-09-28T00:22:31.081Z,3.90
2022-09-28T00:25:02.117Z,5.40
2022-09-28T00:27:33.029Z,4.50
2022-09-28T00:30:04.035Z,5.00
2022-09-28T00:32:35.078Z,5.00
2022-09-28T00:35:06.690Z,4.40
2022-09-28T00:37:37.687Z,5.00
2022-09-28T00:40:10.161Z,4.60
2022-09-28T00:42:42.912Z,4.40
2022-09-28T00:45:14.229Z,4.40
2022-09-28T00:47:51.968Z,2.90
2022-09-28T00:50:30.202Z,4.80
2022-09-28T00:53:05.510Z,5.10
2022-09-28T00:55:41.755Z,5.10
2022-09-28T00:58:19.851Z,3.60
2022-09-28T01:00:51.125Z,4.10
2022-09-28T01:03:22.212Z,4.40
2022-09-28T01:05:54.609Z,2.90
2022-09-28T01:08:28.421Z,3.60
2022-09-28T01:11:00.793Z,3.50
2022-09-28T01:13:33.838Z,2.70
2022-09-28T01:16:14.103Z,3.10
2022-09-28T01:18:50.403Z,2.90
2022-09-28T01:21:23.499Z,3.50
2022-09-28T01:24:15.911Z,2.80
2022-09-28T01:27:11.107Z,3.90
2022-09-28T01:29:48.406Z,3.30
2022-09-28T01:32:33.690Z,2.80
2022-09-28T01:35:09.307Z,3.50
2022-09-28T01:37:47.401Z,3.10
2022-09-28T01:40:20.138Z,3.40
2022-09-28T01:42:58.619Z,3.70
2022-09-28T01:45:34.405Z,4.30
2022-09-28T01:48:09.956Z,2.90
2022-09-28T01:50:44.577Z,4.00
2022-09-28T01:53:22.324Z,5.50
2022-09-28T01:55:56.817Z,3.20
2022-09-28T01:58:33.729Z,4.00
2022-09-28T02:03:42.385Z,4.20
2022-09-28T02:06:17.813Z,3.00
2022-09-28T02:08:54.994Z,3.20
2022-09-28T02:11:26.246Z,4.10
2022-09-28T02:14:01.124Z,4.60
2022-09-28T02:16:36.921Z,3.30
2022-09-28T02:19:09.481Z,3.30
2022-09-28T02:21:45.159Z,3.60
2022-09-28T02:24:22.950Z,3.10
2022-09-28T02:26:57.018Z,3.20
2022-09-28T02:29:28.265Z,3.20
2022-09-28T02:31:59.368Z,3.10
2022-09-28T02:34:30.660Z,2.50
2022-09-28T02:37:02.152Z,3.90
2022-09-28T02:39:32.963Z,5.00
2022-09-28T02:42:14.123Z,4.20
2022-09-28T02:45:01.331Z,4.50
2022-09-28T02:47:47.804Z,7.40
2022-09-28T02:50:31.323Z,3.70
2022-09-28T02:53:22.531Z,3.20
2022-09-28T02:56:09.635Z,3.60
2022-09-28T02:58:49.772Z,4.00
2022-09-28T03:01:30.237Z,3.40
2022-09-28T03:04:12.437Z,3.60
2022-09-28T03:06:49.033Z,4.20
2022-09-28T03:09:25.730Z,3.70
2022-09-28T03:12:01.032Z,3.30
2022-09-28T03:14:31.996Z,3.40
2022-09-28T03:17:02.899Z,3.50
2022-09-28T03:19:36.783Z,2.70
2022-09-28T03:22:08.111Z,3.00
2022-09-28T03:24:39.500Z,3.80
2022-09-28T03:27:10.811Z,2.90
2022-09-28T03:29:41.709Z,4.00
2022-09-28T03:32:12.753Z,2.50
2022-09-28T03:34:43.775Z,2.70
2022-09-28T03:39:43.981Z,3.90
2022-09-28T03:44:44.138Z,3.10
2022-09-28T03:47:16.043Z,3.90
2022-09-28T03:49:47.063Z,2.30
2022-09-28T03:52:18.048Z,3.70
2022-09-28T03:54:49.451Z,3.70
2022-09-28T03:57:20.415Z,2.70
2022-09-28T04:02:20.558Z,2.60
2022-09-28T04:04:51.405Z,3.90
2022-09-28T04:07:22.213Z,2.60
2022-09-28T04:09:53.208Z,2.20
2022-09-28T04:12:24.034Z,2.90
2022-09-28T04:17:25.147Z,1.90
2022-09-28T04:19:56.490Z,2.30
2022-09-28T04:22:27.245Z,3.80
2022-09-28T04:27:45.189Z,2.60
2022-09-28T04:30:16.463Z,4.70
2022-09-28T04:32:48.812Z,2.20
2022-09-28T04:35:20.110Z,2.40
2022-09-28T04:40:20.333Z,2.80
2022-09-28T04:42:57.321Z,2.60
2022-09-28T04:45:28.653Z,1.60
2022-09-28T04:47:59.607Z,2.10
2022-09-28T04:53:01.296Z,2.50
2022-09-28T04:55:32.788Z,3.20
2022-09-28T04:58:06.436Z,2.20
2022-09-28T05:00:37.249Z,2.80
2022-09-28T05:03:08.091Z,1.50
2022-09-28T05:05:44.423Z,2.30
2022-09-28T05:08:15.523Z,2.20
2022-09-28T05:10:46.685Z,1.50
2022-09-28T05:13:18.882Z,1.90
2022-09-28T05:15:57.477Z,2.00
2022-09-28T05:18:29.743Z,2.20
2022-09-28T05:21:01.460Z,1.50
2022-09-28T05:23:34.313Z,3.10
2022-09-28T05:26:05.652Z,1.20
2022-09-28T05:28:36.528Z,3.00
2022-09-28T05:31:07.852Z,1.50
2022-09-28T05:33:39.114Z,1.70
2022-09-28T05:36:11.916Z,2.00
2022-09-28T05:38:42.736Z,1.30
2022-09-28T05:43:44.273Z,1.80
2022-09-28T05:46:15.762Z,2.00
2022-09-28T05:48:46.932Z,1.70
2022-09-28T05:51:18.039Z,1.10
2022-09-28T05:53:48.979Z,2.50
2022-09-28T05:56:19.639Z,2.60
2022-09-28T05:58:50.639Z,1.60
2022-09-28T06:01:21.941Z,2.90
2022-09-28T06:03:52.727Z,2.90
2022-09-28T06:06:23.528Z,6.10
2022-09-28T06:08:54.534Z,11.30
2022-09-28T06:13:57.398Z,2.40
2022-09-28T06:16:28.369Z,1.20
2022-09-28T06:21:28.988Z,2.30
2022-09-28T06:24:00.100Z,1.50
2022-09-28T06:26:31.153Z,3.40
2022-09-28T06:29:04.338Z,1.60
2022-09-28T06:31:35.426Z,1.20
2022-09-28T06:34:06.292Z,1.10
2022-09-28T06:39:06.951Z,2.80
2022-09-28T06:41:37.881Z,1.50
2022-09-28T06:44:08.840Z,3.10
2022-09-28T06:46:40.279Z,2.00
2022-09-28T06:49:14.149Z,1.10
2022-09-28T06:51:48.890Z,3.30
2022-09-28T06:54:19.692Z,2.10
2022-09-28T06:56:50.770Z,1.70
2022-09-28T06:59:21.911Z,2.70
2022-09-28T07:01:52.744Z,3.60
2022-09-28T07:04:23.565Z,2.80
2022-09-28T07:09:32.403Z,2.70
2022-09-28T07:12:05.338Z,3.10
2022-09-28T07:14:47.302Z,3.40
2022-09-28T07:17:18.865Z,2.10
2022-09-28T07:19:52.796Z,2.40
2022-09-28T07:22:36.675Z,3.00
2022-09-28T07:25:12.824Z,2.20
2022-09-28T07:27:43.619Z,2.60
2022-09-28T07:32:46.175Z,3.00
2022-09-28T07:35:17.304Z,1.50
2022-09-28T07:37:48.102Z,3.30
2022-09-28T07:40:36.601Z,3.10
2022-09-28T07:43:10.392Z,3.30
2022-09-28T07:45:41.579Z,2.60
2022-09-28T07:50:51.851Z,3.90
2022-09-28T07:53:25.026Z,3.30
2022-09-28T07:55:57.143Z,7.20
2022-09-28T07:58:28.305Z,3.10
2022-09-28T08:01:01.307Z,1.90
2022-09-28T08:03:32.691Z,3.80
2022-09-28T08:06:05.472Z,1.90
2022-09-28T08:08:37.954Z,2.50
2022-09-28T08:11:10.698Z,2.30
2022-09-28T08:13:42.260Z,1.80
2022-09-28T08:16:13.390Z,1.50
2022-09-28T08:18:44.673Z,2.70
2022-09-28T08:24:02.600Z,3.40
2022-09-28T08:26:33.820Z,2.50
2022-09-28T08:29:04.799Z,1.80
2022-09-28T08:31:36.127Z,1.40
2022-09-28T08:34:07.444Z,3.00
2022-09-28T08:36:39.587Z,1.60
2022-09-28T08:39:10.589Z,3.70
2022-09-28T08:41:50.644Z,2.20
2022-09-28T08:44:24.856Z,2.60
2022-09-28T08:47:02.148Z,2.70
2022-09-28T08:49:36.602Z,2.00
2022-09-28T08:52:13.364Z,1.90
2022-09-28T08:54:51.753Z,1.40
2022-09-28T08:57:28.793Z,3.80
2022-09-28T09:00:02.222Z,2.80
2022-09-28T09:02:36.441Z,1.40
2022-09-28T09:05:14.855Z,2.10
2022-09-28T09:07:59.217Z,4.30
2022-09-28T09:10:49.256Z,4.10
2022-09-28T09:13:44.288Z,2.20
2022-09-28T09:16:25.378Z,2.10
2022-09-28T09:19:05.563Z,1.10
2022-09-28T09:21:42.791Z,1.20
2022-09-28T09:27:03.909Z,3.40
2022-09-28T09:29:51.264Z,4.40
2022-09-28T09:32:40.433Z,13.70
2022-09-28T09:35:28.852Z,1.70
2022-09-28T09:38:16.856Z,4.90
2022-09-28T09:41:02.201Z,2.20
2022-09-28T09:43:55.905Z,4.90
2022-09-28T09:46:36.869Z,1.80
2022-09-28T09:49:16.928Z,4.60
2022-09-28T09:51:53.868Z,2.10
2022-09-28T09:54:31.373Z,2.00
2022-09-28T09:57:08.437Z,2.60
2022-09-28T10:02:24.512Z,2.50
2022-09-28T10:04:58.944Z,5.00
2022-09-28T10:07:42.592Z,2.80
2022-09-28T10:10:21.625Z,3.80
2022-09-28T10:12:54.136Z,2.50
2022-09-28T10:15:28.231Z,6.30
2022-09-28T10:18:03.300Z,13.60
2022-09-28T10:20:38.556Z,23.50
2022-09-28T10:23:17.501Z,37.80
2022-09-28T10:25:50.535Z,7.20
2022-09-28T10:28:29.515Z,9.00
2022-09-28T10:31:00.480Z,7.70
2022-09-28T10:33:34.681Z,4.50
2022-09-28T10:36:11.298Z,5.60
2022-09-28T10:38:48.750Z,2.50
2022-09-28T10:41:19.658Z,1.40
2022-09-28T10:46:39.667Z,1.70
2022-09-28T10:49:17.669Z,9.60
2022-09-28T10:51:51.752Z,2.10
2022-09-28T10:54:24.467Z,1.70
2022-09-28T10:56:57.039Z,5.10
2022-09-28T10:59:42.502Z,3.80
2022-09-28T11:02:24.315Z,128.00
2022-09-28T11:04:57.981Z,26.80
2022-09-28T11:07:32.034Z,3.50
2022-09-28T11:10:04.206Z,3.00
2022-09-28T11:12:39.825Z,3.20
2022-09-28T11:15:21.462Z,3.10
2022-09-28T11:17:53.396Z,2.10
2022-09-28T11:20:35.652Z,4.20
2022-09-28T11:23:21.972Z,1.10
2022-09-28T11:26:06.887Z,6.60
2022-09-28T11:28:41.367Z,5.60
2022-09-28T11:31:12.834Z,9.30
2022-09-28T11:33:47.756Z,5.90
2022-09-28T11:36:33.022Z,5.10
2022-09-28T11:39:12.249Z,2.80
2022-09-28T11:41:59.014Z,3.30
2022-09-28T11:44:46.390Z,7.50
2022-09-28T11:47:38.927Z,3.10
2022-09-28T11:50:23.871Z,2.40
2022-09-28T11:53:02.872Z,1.60
2022-09-28T11:55:39.819Z,2.20
2022-09-28T11:58:19.065Z,1.90
2022-09-28T12:00:55.995Z,2.80
2022-09-28T12:03:31.859Z,1.90
2022-09-28T12:06:06.592Z,3.80
2022-09-28T12:08:42.203Z,4.20
2022-09-28T12:11:18.870Z,3.60
2022-09-28T12:13:52.904Z,35.70
2022-09-28T12:16:53.432Z,6.80
2022-09-28T12:19:23.737Z,9.40
2022-09-28T12:22:01.745Z,4.60
2022-09-28T12:24:35.949Z,6.20
2022-09-28T12:27:12.752Z,5.60
2022-09-28T12:29:48.812Z,2.20
2022-09-28T12:32:29.711Z,2.10
2022-09-28T12:35:01.029Z,2.10
2022-09-28T12:37:45.483Z,2.50
2022-09-28T12:40:39.046Z,1.90
2022-09-28T12:43:44.003Z,5.10
2022-09-28T12:46:36.853Z,5.10
2022-09-28T12:50:33.298Z,6.70
2022-09-28T12:55:32.001Z,3.20
2022-09-28T12:58:15.693Z,4.50
2022-09-28T13:01:01.814Z,2.30
2022-09-28T13:04:00.954Z,2.30
2022-09-28T13:06:52.951Z,3.80
2022-09-28T13:09:27.138Z,2.20
2022-09-28T13:12:14.247Z,3.40
2022-09-28T13:15:10.024Z,2.80
2022-09-28T13:17:49.532Z,4.00
2022-09-28T13:20:31.460Z,3.20
2022-09-28T13:23:12.958Z,10.20
2022-09-28T13:25:51.160Z,13.20
2022-09-28T13:28:26.984Z,17.80
2022-09-28T13:33:38.694Z,6.80
2022-09-28T13:36:47.852Z,6.30
2022-09-28T13:39:38.636Z,21.60
2022-09-28T13:42:11.888Z,8.70
2022-09-28T13:44:59.498Z,6.30
2022-09-28T13:47:46.593Z,29.40
2022-09-28T13:50:28.776Z,20.00
2022-09-28T13:53:09.165Z,11.30
2022-09-28T13:55:54.870Z,5.70
2022-09-28T13:58:30.107Z,13.60
2022-09-28T14:01:04.955Z,5.20
2022-09-28T14:03:57.019Z,46.80
2022-09-28T14:06:30.732Z,7.30
2022-09-28T14:09:27.668Z,5.00
2022-09-28T14:12:01.643Z,2.80
2022-09-28T14:17:53.370Z,4.30
2022-09-28T14:20:28.302Z,5.00
2022-09-28T14:23:38.872Z,14.50
2022-09-28T14:26:39.625Z,3.80
2022-09-28T14:29:27.467Z,4.30
2022-09-28T14:32:04.750Z,62.70
2022-09-28T14:34:39.380Z,25.70
2022-09-28T14:37:40.544Z,17.00
2022-09-28T14:40:37.779Z,7.40
2022-09-28T14:43:38.484Z,4.80
2022-09-28T14:46:37.920Z,4.50
2022-09-28T14:49:49.017Z,2.30
2022-09-28T14:52:41.923Z,79.50
2022-09-28T14:55:19.042Z,77.00
2022-09-28T14:57:56.788Z,119.10
2022-09-28T15:00:31.947Z,87.20
2022-09-28T15:03:12.191Z,152.00
2022-09-28T15:05:48.255Z,69.30
2022-09-28T15:08:22.608Z,11.40
2022-09-28T15:10:54.959Z,5.60
2022-09-28T15:13:28.560Z,2.80
2022-09-28T15:16:06.539Z,19.30
2022-09-28T15:19:10.969Z,14.90
2022-09-28T15:21:45.451Z,34.20
2022-09-28T15:24:32.711Z,6.10
2022-09-28T15:27:19.082Z,32.90
2022-09-28T15:30:00.239Z,12.70
2022-09-28T15:32:32.317Z,4.30
2022-09-28T15:35:20.640Z,1.70
2022-09-28T15:37:52.666Z,1.70
2022-09-28T15:40:30.692Z,4.30
2022-09-28T15:43:02.510Z,2.10
2022-09-28T15:45:38.332Z,2.20
2022-09-28T15:48:31.068Z,2.80
2022-09-28T15:51:11.053Z,1.90
2022-09-28T15:53:52.671Z,4.10
2022-09-28T15:56:23.583Z,4.70
2022-09-28T15:59:11.040Z,2.90
2022-09-28T16:01:43.597Z,2.80
2022-09-28T16:04:48.063Z,8.00
2022-09-28T16:07:24.878Z,2.70
2022-09-28T16:10:00.969Z,9.20
2022-09-28T16:12:48.785Z,10.50
2022-09-28T16:15:25.056Z,3.40
2022-09-28T16:18:00.673Z,13.30
2022-09-28T16:20:34.206Z,3.70
2022-09-28T16:23:20.304Z,3.70
2022-09-28T16:25:53.854Z,3.10
2022-09-28T16:28:51.943Z,4.50
2022-09-28T16:31:34.839Z,5.30
2022-09-28T16:34:21.212Z,17.80
2022-09-28T16:36:52.667Z,16.70
2022-09-28T16:39:23.688Z,11.10
2022-09-28T16:42:01.837Z,17.70
2022-09-28T16:44:36.459Z,12.30
2022-09-28T16:47:09.031Z,10.60
2022-09-28T16:49:41.952Z,17.80
2022-09-28T16:52:34.709Z,35.60
2022-09-28T16:58:09.428Z,26.60
2022-09-28T17:00:42.855Z,27.20
2022-09-28T17:03:18.400Z,19.10
2022-09-28T17:05:49.920Z,32.70
2022-09-28T17:08:23.752Z,20.70
2022-09-28T17:13:48.740Z,12.00
2022-09-28T17:16:32.526Z,13.30
2022-09-28T17:19:19.050Z,18.30
2022-09-28T17:21:50.944Z,10.50
2022-09-28T17:24:22.306Z,9.10
2022-09-28T17:26:53.726Z,6.60
2022-09-28T17:29:24.776Z,5.30
2022-09-28T17:34:26.200Z,9.30
2022-09-28T17:39:27.327Z,7.10
2022-09-28T17:41:58.147Z,10.50
2022-09-28T17:44:28.991Z,15.80
2022-09-28T17:47:01.067Z,12.80
2022-09-28T17:49:32.223Z,12.80
2022-09-28T17:52:05.091Z,109.00
2022-09-28T17:54:36.131Z,38.00
2022-09-28T17:57:07.096Z,15.10
2022-09-28T17:59:38.070Z,14.70
2022-09-28T18:02:10.696Z,17.60
2022-09-28T18:04:51.903Z,16.50
2022-09-28T18:07:23.204Z,18.90
2022-09-28T18:09:58.237Z,21.10
2022-09-28T18:12:29.209Z,23.80
2022-09-28T18:17:29.635Z,18.00
2022-09-28T18:20:00.569Z,24.00
2022-09-28T18:22:31.744Z,24.00
2022-09-28T18:27:34.159Z,32.80
2022-09-28T18:30:06.303Z,16.70
2022-09-28T18:32:38.221Z,12.30
2022-09-28T18:35:12.099Z,11.60
2022-09-28T18:37:43.147Z,8.70
2022-09-28T18:40:15.368Z,6.40
2022-09-28T18:42:46.548Z,5.50
2022-09-28T18:45:18.673Z,7.50
2022-09-28T18:47:49.741Z,10.10
2022-09-28T18:50:20.812Z,6.30
2022-09-28T18:52:51.579Z,15.50
2022-09-28T18:55:22.588Z,11.80
2022-09-28T18:57:53.655Z,14.20
2022-09-28T19:00:25.240Z,15.30
2022-09-28T19:02:55.974Z,15.20
2022-09-28T19:05:28.737Z,11.30
2022-09-28T19:08:02.808Z,15.40
2022-09-28T19:10:33.814Z,12.80
2022-09-28T19:13:04.792Z,21.80
2022-09-28T19:15:36.252Z,24.10
2022-09-28T19:18:07.386Z,15.90
2022-09-28T19:23:07.833Z,9.40
2022-09-28T19:25:40.336Z,16.90
2022-09-28T19:28:11.359Z,19.80
2022-09-28T19:30:42.185Z,18.40
2022-09-28T19:33:13.259Z,17.70
2022-09-28T19:35:44.248Z,18.00
2022-09-28T19:38:15.102Z,11.60
2022-09-28T19:40:46.689Z,7.00
2022-09-28T19:43:18.519Z,7.80
2022-09-28T19:45:52.396Z,10.30
2022-09-28T19:48:27.753Z,13.90
2022-09-28T19:50:59.660Z,10.50
2022-09-28T19:53:32.411Z,19.60
2022-09-28T19:56:05.180Z,43.90
2022-09-28T19:58:37.958Z,72.90
2022-09-28T20:01:09.737Z,46.30
2022-09-28T20:03:40.540Z,74.40
2022-09-28T20:06:17.082Z,48.50
2022-09-28T20:08:48.809Z,34.30
2022-09-28T20:11:23.516Z,24.60
2022-09-28T20:13:55.471Z,14.90
2022-09-28T20:16:27.168Z,16.70
2022-09-28T20:19:03.198Z,15.50
2022-09-28T20:21:35.230Z,12.80
2022-09-28T20:24:06.668Z,11.90
2022-09-28T20:26:37.987Z,9.80
2022-09-28T20:29:09.931Z,9.40
2022-09-28T20:31:42.011Z,10.50
2022-09-28T20:34:14.017Z,19.00
2022-09-28T20:36:44.727Z,34.20
2022-09-28T20:39:15.768Z,14.80
2022-09-28T20:41:48.346Z,16.20
2022-09-28T20:44:19.350Z,14.40
2022-09-28T20:46:53.351Z,39.90
2022-09-28T20:49:24.387Z,50.20
2022-09-28T20:51:55.353Z,28.00
2022-09-28T20:54:26.406Z,33.30
2022-09-28T20:56:57.498Z,36.30
2022-09-28T20:59:28.488Z,35.90
2022-09-28T21:04:28.946Z,42.30
2022-09-28T21:06:59.813Z,30.00
2022-09-28T21:09:32.240Z,32.40
2022-09-28T21:12:03.635Z,27.20
2022-09-28T21:14:34.548Z,24.00
2022-09-28T21:17:05.741Z,19.30
2022-09-28T21:19:36.591Z,19.70
2022-09-28T21:22:07.678Z,18.60
2022-09-28T21:24:38.838Z,22.60
2022-09-28T21:27:11.667Z,17.20
2022-09-28T21:29:42.478Z,24.50
2022-09-28T21:32:13.316Z,21.00
2022-09-28T21:34:44.303Z,26.70
2022-09-28T21:37:15.080Z,32.50
2022-09-28T21:39:46.145Z,28.00
2022-09-28T21:42:16.820Z,22.30
2022-09-28T21:44:48.053Z,20.10
2022-09-28T21:47:19.022Z,18.50
2022-09-28T21:49:50.151Z,18.40
2022-09-28T21:52:21.007Z,22.00
2022-09-28T21:54:56.573Z,41.00
2022-09-28T21:57:27.410Z,26.30
2022-09-28T21:59:58.244Z,20.60
2022-09-28T22:02:30.757Z,17.30
2022-09-28T22:05:01.579Z,30.10
2022-09-28T22:07:32.646Z,28.30
2022-09-28T22:10:03.490Z,22.50
2022-09-28T22:12:34.515Z,24.70
2022-09-28T22:15:06.748Z,19.70
2022-09-28T22:17:37.644Z,13.90
2022-09-28T22:20:09.556Z,17.20
2022-09-28T22:22:40.749Z,12.40
2022-09-28T22:25:12.178Z,9.10
2022-09-28T22:27:43.338Z,8.50
2022-09-28T22:30:15.715Z,7.40
2022-09-28T22:32:47.054Z,9.90
2022-09-28T22:37:49.064Z,9.50
2022-09-28T22:40:20.337Z,8.60
2022-09-28T22:42:51.369Z,8.50
2022-09-28T22:45:23.233Z,11.10
2022-09-28T22:47:53.964Z,12.90
2022-09-28T22:50:25.075Z,11.10
2022-09-28T22:52:56.787Z,11.00
2022-09-28T22:55:27.649Z,9.80
2022-09-28T23:00:28.210Z,7.00
2022-09-28T23:02:59.182Z,9.20
2022-09-28T23:05:30.295Z,11.00
2022-09-28T23:10:34.253Z,9.20
2022-09-28T23:13:05.189Z,8.90
2022-09-28T23:18:06.118Z,7.60
2022-09-28T23:20:37.471Z,6.90
2022-09-28T23:23:08.309Z,8.00
2022-09-28T23:25:39.412Z,7.20
2022-09-28T23:28:10.416Z,7.30
2022-09-28T23:30:41.425Z,11.40
2022-09-28T23:33:14.848Z,8.90
2022-09-28T23:35:45.959Z,8.60
2022-09-28T23:38:18.859Z,13.80
2022-09-28T23:40:50.338Z,19.40
2022-09-28T23:43:21.191Z,13.70
2022-09-28T23:45:52.093Z,9.10
2022-09-28T23:48:23.091Z,8.80
2022-09-28T23:50:54.044Z,10.90
2022-09-28T23:53:25.367Z,13.20
2022-09-28T23:55:56.997Z,16.50
2022-09-28T23:58:28.303Z,15.40
